CYSJ

Saint John Airport

Saint John, , Canada
METAR CYSJ 220200Z 05005KT 15SM FEW090 SCT290 10/M01 A3008 RMK AC2CI1 SLP188
Observed Flight Rules
May-22 @ 02:00 UTC (37 minutes ago) Visual Flight Rules
Wind Visibility Clouds
50° at 5 knots 15 miles
  • Few at 9,000' AGL
  • Scattered at 29,000' AGL
Temperatures Readings
Current 10°C / 50°F
Dewpoint -1°C / 30°F
Humidity 47%
Altimeter 30.08" Hg
Pressure 1018.8 hPa
Elevation 109
METAR CYSJ 220200Z 05005KT 15SM FEW090 SCT290 10/M01 A3008 RMK AC2CI1 SLP188
Observed Flight Rules
May-22 @ 02:00 UTC
(37 minutes ago)
VFR
Wind Visibility
50° at 5 knots 15 miles
Clouds
  • Few at 9,000' AGL
  • Scattered at 29,000' AGL
Temperature Dewpoint
10°C / 50°F -1°C / 30°F
Humidity Altimeter Pressure
47% 30.08" Hg 1018.8 hPa